Time;durP1;ratioP1;P1;durP2;ratioP2;P2;SDS_P1;SDS_P2;PMS_P1;PMS_P2;Temp;Humidity;BMP_temperature;BMP_pressure;BME280_temperature;BME280_humidity;BME280_pressure;Samples;Min_cycle;Max_cycle;Signal;HPM_P1;HPM_P2
2023/01/11 00:00:23;;;;;;;5.50;2.92;;;8.00;99.90;;;;;;5071500;28;20465;-77
2023/01/11 00:02:58;;;;;;;5.78;3.15;;;8.10;99.90;;;;;;5070723;28;20481;-78
2023/01/11 00:05:24;;;;;;;5.60;2.83;;;8.10;99.90;;;;;;5071832;28;20045;-77
2023/01/11 00:07:50;;;;;;;4.95;2.72;;;8.20;99.90;;;;;;5070368;28;20058;-78
2023/01/11 00:10:16;;;;;;;5.55;3.00;;;8.10;99.90;;;;;;5070815;28;20045;-77
2023/01/11 00:12:41;;;;;;;5.43;3.00;;;8.10;99.90;;;;;;5071536;28;20048;-77
2023/01/11 00:15:08;;;;;;;5.80;3.10;;;8.20;99.90;;;;;;5071115;28;20466;-78
2023/01/11 00:17:33;;;;;;;6.22;2.90;;;8.20;99.90;;;;;;5069810;28;20052;-77
2023/01/11 00:19:59;;;;;;;5.97;3.13;;;8.20;99.90;;;;;;5071866;28;20056;-77
2023/01/11 00:22:26;;;;;;;7.63;3.35;;;8.20;99.90;;;;;;5070064;28;20127;-78
2023/01/11 00:24:51;;;;;;;6.15;3.35;;;8.20;99.90;;;;;;5070463;28;20079;-77
2023/01/11 00:27:17;;;;;;;5.05;3.10;;;8.20;99.90;;;;;;5070717;28;20091;-77
2023/01/11 00:29:43;;;;;;;5.82;2.92;;;8.20;99.90;;;;;;5070258;28;20124;-77
2023/01/11 00:32:09;;;;;;;6.15;2.97;;;8.30;99.90;;;;;;5071585;28;20044;-77
2023/01/11 00:34:35;;;;;;;4.47;2.78;;;8.30;99.90;;;;;;5071306;28;20505;-78
2023/01/11 00:37:00;;;;;;;8.32;3.17;;;8.40;99.90;;;;;;5070385;28;20177;-78
2023/01/11 00:39:26;;;;;;;6.60;2.83;;;8.40;99.90;;;;;;5069518;28;20072;-77
2023/01/11 00:50:05;;;;;;;5.43;2.70;;;8.60;99.90;;;;;;5056399;28;20056;-78
2023/01/11 00:52:30;;;;;;;5.88;3.08;;;8.50;99.90;;;;;;5069215;28;20490;-77
2023/01/11 00:54:56;;;;;;;6.13;2.90;;;8.60;99.90;;;;;;5071035;28;20040;-77
2023/01/11 00:57:22;;;;;;;4.43;2.60;;;8.60;99.90;;;;;;5071221;28;20080;-82
2023/01/11 00:59:47;;;;;;;3.95;2.38;;;8.60;99.90;;;;;;5071303;28;20080;-78
2023/01/11 01:02:13;;;;;;;5.57;2.60;;;8.70;99.90;;;;;;5070384;28;20402;-76
2023/01/11 01:04:39;;;;;;;4.97;2.65;;;8.70;99.90;;;;;;5070130;28;20060;-80
2023/01/11 01:07:05;;;;;;;4.78;2.80;;;8.70;99.90;;;;;;5053608;28;20142;-78
2023/01/11 01:09:32;;;;;;;11.73;2.85;;;8.80;99.90;;;;;;5070673;28;20182;-78
2023/01/11 01:11:58;;;;;;;6.57;2.90;;;8.80;99.90;;;;;;5070376;28;20602;-78
2023/01/11 01:14:31;;;;;;;4.25;2.53;;;8.80;99.90;;;;;;5074891;28;20040;-82
2023/01/11 01:17:05;;;;;;;5.03;2.33;;;8.80;99.90;;;;;;5073870;28;20074;-78
2023/01/11 01:19:33;;;;;;;4.72;2.70;;;8.90;99.90;;;;;;5073795;28;20055;-77
2023/01/11 01:21:59;;;;;;;3.78;2.63;;;8.80;99.90;;;;;;5075076;28;20060;-78
2023/01/11 01:24:27;;;;;;;5.22;2.80;;;8.90;99.90;;;;;;5073569;28;20474;-82
2023/01/11 01:26:53;;;;;;;5.13;2.65;;;8.90;99.90;;;;;;5075262;28;20473;-78
2023/01/11 01:29:19;;;;;;;;;;;8.90;99.90;;;;;;5075380;28;20270;-77
2023/01/11 01:31:45;;;;;;;4.40;2.33;;;8.90;99.90;;;;;;5074614;28;19924;-77
2023/01/11 01:34:11;;;;;;;5.45;2.53;;;8.90;99.90;;;;;;5073737;28;20079;-78
2023/01/11 01:36:36;;;;;;;5.95;3.10;;;8.90;99.90;;;;;;5073424;28;20102;-78
2023/01/11 01:39:04;;;;;;;4.70;3.15;;;8.90;99.90;;;;;;5073425;28;20040;-79
2023/01/11 01:41:31;;;;;;;4.85;2.95;;;8.90;99.90;;;;;;5073486;28;20055;-78
2023/01/11 01:43:59;;;;;;;4.90;2.75;;;8.90;99.90;;;;;;5056773;28;20048;-78
2023/01/11 01:46:30;;;;;;;6.60;2.70;;;9.00;99.90;;;;;;5074406;28;20048;-81
2023/01/11 01:48:59;;;;;;;6.82;2.50;;;9.00;99.90;;;;;;5073593;28;20040;-78
2023/01/11 01:51:37;;;;;;;5.60;2.85;;;8.90;99.90;;;;;;5073380;28;20554;-81
2023/01/11 01:54:07;;;;;;;4.60;2.80;;;9.00;99.90;;;;;;5074140;28;20528;-78
2023/01/11 01:56:38;;;;;;;5.38;2.78;;;9.00;99.90;;;;;;5073216;28;20385;-78
2023/01/11 01:59:11;;;;;;;5.38;2.83;;;9.00;99.90;;;;;;5073528;28;20077;-79
2023/01/11 02:01:47;;;;;;;7.65;2.92;;;9.00;99.90;;;;;;5072749;28;20055;-78
2023/01/11 02:04:36;;;;;;;5.18;2.95;;;9.00;99.90;;;;;;5073501;28;20052;-79
2023/01/11 02:07:17;;;;;;;5.80;2.85;;;9.10;99.90;;;;;;5060849;28;20048;-78
2023/01/11 02:09:49;;;;;;;5.03;2.63;;;9.10;99.90;;;;;;5073755;28;20074;-78
2023/01/11 02:12:15;;;;;;;4.88;2.70;;;9.10;99.90;;;;;;5074341;28;20401;-78
2023/01/11 02:14:43;;;;;;;5.75;2.63;;;9.10;99.90;;;;;;5073042;28;20049;-79
2023/01/11 02:17:09;;;;;;;6.30;3.25;;;9.10;99.90;;;;;;5055986;28;20132;-78
2023/01/11 02:19:51;;;;;;;5.60;2.50;;;9.10;99.90;;;;;;5072621;28;20402;-78
2023/01/11 02:22:42;;;;;;;4.45;2.60;;;9.20;99.90;;;;;;5072944;28;20051;-79
2023/01/11 02:25:32;;;;;;;6.25;2.40;;;9.20;99.90;;;;;;5068549;28;20053;-78
2023/01/11 02:28:12;;;;;;;8.63;2.83;;;9.20;99.90;;;;;;5074019;28;20505;-78
2023/01/11 02:30:43;;;;;;;6.43;2.53;;;9.20;99.90;;;;;;5072846;28;20052;-78
2023/01/11 02:33:24;;;;;;;4.90;2.20;;;9.30;99.90;;;;;;5073782;28;20053;-77
2023/01/11 02:36:32;;;;;;;6.38;2.65;;;9.30;99.90;;;;;;5072410;28;20503;-79
2023/01/11 02:39:10;;;;;;;4.63;2.80;;;9.30;99.90;;;;;;5072340;28;20482;-79
2023/01/11 02:45:13;;;;;;;7.43;2.78;;;9.30;99.90;;;;;;5049100;28;20052;-77
2023/01/11 02:47:38;;;;;;;8.05;2.90;;;9.40;99.90;;;;;;5072126;28;20482;-77
2023/01/11 02:50:07;;;;;;;6.05;3.03;;;9.40;99.90;;;;;;5072703;28;20052;-77
2023/01/11 02:52:45;;;;;;;6.78;2.38;;;9.40;99.90;;;;;;5071837;28;20136;-80
2023/01/11 02:55:14;;;;;;;5.03;2.50;;;9.50;99.90;;;;;;5072629;28;20093;-78
2023/01/11 02:57:41;;;;;;;4.28;2.22;;;9.50;99.90;;;;;;5072879;28;20064;-77
2023/01/11 03:00:09;;;;;;;4.30;2.30;;;9.50;99.90;;;;;;5071902;28;20044;-77
2023/01/11 03:02:35;;;;;;;5.85;2.20;;;9.50;99.90;;;;;;5071714;28;20049;-77
2023/01/11 03:05:00;;;;;;;3.70;1.90;;;9.50;99.90;;;;;;5073242;28;20048;-77
2023/01/11 03:07:47;;;;;;;3.60;2.00;;;9.60;99.90;;;;;;5071613;28;20055;-76
2023/01/11 03:10:37;;;;;;;5.10;2.20;;;9.60;99.90;;;;;;5073367;28;20371;-76
2023/01/11 03:13:12;;;;;;;4.20;2.20;;;9.60;99.90;;;;;;5055507;28;20060;-75
2023/01/11 03:15:57;;;;;;;4.25;2.17;;;9.60;99.90;;;;;;5072606;28;20051;-76
2023/01/11 03:18:38;;;;;;;7.30;2.08;;;9.60;99.90;;;;;;5072807;28;20044;-75
2023/01/11 03:21:19;;;;;;;3.42;2.08;;;9.60;99.90;;;;;;5071924;28;20048;-76
2023/01/11 03:23:54;;;;;;;4.60;1.92;;;9.60;99.90;;;;;;5072281;28;20048;-75
2023/01/11 03:26:29;;;;;;;5.55;2.28;;;9.60;99.90;;;;;;5072915;28;20087;-76
2023/01/11 03:29:09;;;;;;;3.47;2.15;;;9.70;99.90;;;;;;5072328;28;20107;-75
2023/01/11 03:31:52;;;;;;;4.88;2.20;;;9.70;99.90;;;;;;5072480;28;20052;-80
2023/01/11 03:34:55;;;;;;;3.50;1.75;;;9.70;99.90;;;;;;5071800;28;20051;-75
2023/01/11 03:37:53;;;;;;;4.00;2.17;;;9.70;99.90;;;;;;5071974;28;20481;-76
2023/01/11 03:40:28;;;;;;;5.53;1.95;;;9.70;99.90;;;;;;5072730;28;20375;-75
2023/01/11 03:43:11;;;;;;;5.32;2.10;;;9.70;99.90;;;;;;5072188;28;20044;-75
2023/01/11 03:45:55;;;;;;;5.10;2.28;;;9.70;99.90;;;;;;5071406;28;20593;-80
2023/01/11 03:48:52;;;;;;;3.83;2.08;;;9.70;99.90;;;;;;5071326;28;20474;-76
2023/01/11 03:51:23;;;;;;;6.15;2.28;;;9.70;99.90;;;;;;5072234;28;20091;-76
2023/01/11 03:53:51;;;;;;;3.45;2.00;;;9.80;99.90;;;;;;5071623;28;20051;-75
2023/01/11 03:56:22;;;;;;;3.13;2.15;;;9.70;99.90;;;;;;5071221;28;20052;-74
2023/01/11 03:58:48;;;;;;;3.85;2.00;;;9.80;99.90;;;;;;5071661;28;20048;-77
2023/01/11 04:01:14;;;;;;;3.50;2.25;;;9.70;99.90;;;;;;5071111;28;20619;-76
2023/01/11 04:03:39;;;;;;;5.10;2.03;;;9.80;99.90;;;;;;5071583;28;20097;-77
2023/01/11 04:06:05;;;;;;;6.10;2.05;;;9.80;99.90;;;;;;5071996;28;20687;-74
2023/01/11 04:08:31;;;;;;;;;;;9.80;99.90;;;;;;5071170;28;20045;-74
2023/01/11 04:10:57;;;;;;;3.63;1.60;;;9.80;99.90;;;;;;5071804;28;19942;-78
2023/01/11 04:13:22;;;;;;;4.95;1.65;;;9.80;99.90;;;;;;5071899;28;20052;-74
2023/01/11 04:15:48;;;;;;;2.88;1.90;;;9.80;99.90;;;;;;5071208;28;20061;-76
2023/01/11 04:18:14;;;;;;;2.30;1.52;;;9.90;99.90;;;;;;5071778;28;20044;-74
2023/01/11 04:20:40;;;;;;;2.10;1.48;;;9.90;99.90;;;;;;5070717;28;20055;-80
2023/01/11 04:23:06;;;;;;;;;;;9.90;99.90;;;;;;5071683;28;20085;-74
2023/01/11 04:25:32;;;;;;;3.38;1.60;;;9.90;99.90;;;;;;5071939;28;20353;-74
2023/01/11 04:27:58;;;;;;;2.70;1.65;;;10.00;99.90;;;;;;5071363;28;20127;-75
2023/01/11 04:30:24;;;;;;;2.00;1.30;;;10.00;99.90;;;;;;5071986;28;20044;-74
2023/01/11 04:32:50;;;;;;;5.63;1.35;;;10.00;99.90;;;;;;5071142;28;20055;-74
2023/01/11 04:35:16;;;;;;;2.70;1.45;;;10.00;99.90;;;;;;5071870;28;20072;-74
2023/01/11 04:37:43;;;;;;;4.47;1.88;;;10.00;99.90;;;;;;5070834;28;20052;-79
2023/01/11 04:40:09;;;;;;;;;;;10.00;99.90;;;;;;5072171;28;20037;-74
2023/01/11 04:42:35;;;;;;;2.10;1.38;;;10.00;99.90;;;;;;5071662;28;20278;-74
2023/01/11 04:45:00;;;;;;;2.75;1.73;;;10.00;99.90;;;;;;5071239;28;20047;-74
2023/01/11 04:47:26;;;;;;;1.83;1.40;;;10.00;99.90;;;;;;5071097;28;20057;-75
2023/01/11 04:49:51;;;;;;;2.30;1.48;;;10.10;99.90;;;;;;5071247;28;20041;-74
2023/01/11 04:52:19;;;;;;;1.95;1.20;;;10.10;99.90;;;;;;5053749;28;20090;-77
2023/01/11 04:54:45;;;;;;;1.85;1.17;;;10.10;99.90;;;;;;5071119;28;20045;-74
2023/01/11 04:57:11;;;;;;;;;;;10.20;99.90;;;;;;5071924;28;20063;-75
2023/01/11 04:59:36;;;;;;;3.20;1.58;;;10.10;99.90;;;;;;5071684;28;19920;-74
2023/01/11 05:02:02;;;;;;;2.13;1.38;;;10.10;99.90;;;;;;5070018;28;20098;-74
2023/01/11 05:04:28;;;;;;;4.07;1.40;;;10.20;99.90;;;;;;5071228;28;20054;-76
2023/01/11 05:06:54;;;;;;;2.40;1.55;;;10.20;99.90;;;;;;5070652;28;20044;-75
2023/01/11 05:09:19;;;;;;;2.13;1.40;;;10.20;99.90;;;;;;5071134;28;20055;-74
2023/01/11 05:11:45;;;;;;;3.90;1.80;;;10.20;99.90;;;;;;5071074;28;20128;-74
2023/01/11 05:14:11;;;;;;;3.80;1.70;;;10.20;99.90;;;;;;5070529;28;20045;-75
2023/01/11 05:16:37;;;;;;;3.45;1.92;;;10.20;99.90;;;;;;5071134;28;20056;-75
2023/01/11 05:19:05;;;;;;;4.30;2.05;;;10.30;99.90;;;;;;5053192;28;20073;-75
2023/01/11 05:21:33;;;;;;;4.03;1.83;;;10.30;99.90;;;;;;5071142;28;20044;-76
2023/01/11 05:24:01;;;;;;;5.00;2.10;;;10.30;99.90;;;;;;5070659;28;20098;-76
2023/01/11 05:26:29;;;;;;;5.75;2.10;;;10.30;99.90;;;;;;5070980;28;20498;-76
2023/01/11 05:28:58;;;;;;;4.47;2.05;;;10.30;99.90;;;;;;5070803;28;20517;-76
2023/01/11 05:31:24;;;;;;;5.15;2.72;;;10.30;99.90;;;;;;5071128;28;20045;-76
2023/01/11 05:33:49;;;;;;;6.57;2.67;;;10.30;99.90;;;;;;5070599;28;20131;-76
2023/01/11 05:36:17;;;;;;;5.47;2.42;;;10.30;99.90;;;;;;5070056;28;20060;-76
2023/01/11 05:38:48;;;;;;;7.18;2.70;;;10.30;99.90;;;;;;5069588;28;20398;-81
2023/01/11 05:41:14;;;;;;;8.68;2.97;;;10.30;99.90;;;;;;5070146;28;20386;-76
2023/01/11 05:46:28;;;;;;;9.07;2.88;;;10.30;99.90;;;;;;5070996;28;20075;-77
2023/01/11 05:48:54;;;;;;;7.70;3.08;;;10.30;99.90;;;;;;5070907;28;20466;-77
2023/01/11 05:51:20;;;;;;;10.93;3.50;;;10.30;99.90;;;;;;5070883;28;20544;-76
2023/01/11 05:53:46;;;;;;;12.90;3.30;;;10.40;99.90;;;;;;5070330;28;20045;-77
2023/01/11 05:56:12;;;;;;;14.93;3.33;;;10.40;99.90;;;;;;5070871;28;20048;-76
2023/01/11 05:58:37;;;;;;;10.02;4.32;;;10.30;99.90;;;;;;5070366;28;20044;-75
2023/01/11 06:01:03;;;;;;;10.80;3.58;;;10.30;99.90;;;;;;5072593;28;20045;-75
2023/01/11 06:03:29;;;;;;;11.27;3.90;;;10.40;99.90;;;;;;5074064;28;20059;-76
2023/01/11 06:05:57;;;;;;;12.65;3.97;;;10.30;99.90;;;;;;5072843;28;20466;-78
2023/01/11 06:08:22;;;;;;;14.88;4.38;;;10.30;99.90;;;;;;5073739;28;20053;-75
2023/01/11 06:10:53;;;;;;;22.00;3.83;;;10.30;99.90;;;;;;5073762;28;20390;-75
2023/01/11 06:13:26;;;;;;;12.60;2.95;;;10.30;99.90;;;;;;5074379;28;20060;-76
2023/01/11 06:16:01;;;;;;;16.27;3.35;;;10.30;99.90;;;;;;5073856;28;20114;-76
2023/01/11 06:18:29;;;;;;;13.95;3.08;;;10.30;99.90;;;;;;5073085;28;20055;-76
2023/01/11 06:20:55;;;;;;;12.48;3.25;;;10.30;99.90;;;;;;5073384;28;20052;-76
2023/01/11 06:23:22;;;;;;;11.23;3.08;;;10.30;99.90;;;;;;5073779;28;20087;-76
2023/01/11 06:25:48;;;;;;;13.80;3.25;;;10.20;99.90;;;;;;5073672;28;20054;-79
2023/01/11 06:28:14;;;;;;;11.45;3.08;;;10.20;99.90;;;;;;5074055;28;20048;-76
2023/01/11 06:30:40;;;;;;;12.55;3.15;;;10.20;99.90;;;;;;5074054;28;20546;-77
2023/01/11 06:33:06;;;;;;;;;;;10.20;99.90;;;;;;5073795;28;20126;-79
2023/01/11 06:35:35;;;;;;;19.05;3.75;;;10.20;99.90;;;;;;5074013;28;20380;-76
2023/01/11 06:38:01;;;;;;;8.52;2.70;;;10.10;99.90;;;;;;5073101;28;20044;-77
2023/01/11 06:40:28;;;;;;;9.35;2.33;;;10.20;99.90;;;;;;5073618;28;20044;-78
2023/01/11 06:42:53;;;;;;;13.73;3.00;;;10.10;99.90;;;;;;5072454;28;20052;-77
2023/01/11 06:45:19;;;;;;;10.50;2.13;;;10.10;99.90;;;;;;5072850;28;20493;-77
2023/01/11 06:47:45;;;;;;;15.18;2.40;;;10.10;99.90;;;;;;5055935;28;20048;-77
2023/01/11 06:50:10;;;;;;;14.30;2.38;;;10.00;99.90;;;;;;5073383;28;20044;-77
2023/01/11 06:52:36;;;;;;;12.15;2.53;;;9.90;99.90;;;;;;5072195;28;20040;-77
2023/01/11 06:55:02;;;;;;;13.95;2.42;;;9.90;99.90;;;;;;5072135;28;20639;-77
2023/01/11 06:57:28;;;;;;;20.92;3.03;;;9.90;99.90;;;;;;5072999;28;20090;-78
2023/01/11 06:59:54;;;;;;;13.10;2.60;;;9.90;99.90;;;;;;5072854;28;20045;-77
2023/01/11 07:02:19;;;;;;;15.43;2.78;;;9.90;99.90;;;;;;5072833;28;20401;-78
2023/01/11 07:04:45;;;;;;;17.35;2.90;;;9.90;99.90;;;;;;5073060;28;20048;-77
2023/01/11 07:07:11;;;;;;;11.32;2.50;;;9.90;99.90;;;;;;5071457;28;20048;-77
2023/01/11 07:09:36;;;;;;;25.20;3.35;;;9.90;99.90;;;;;;5072012;28;20048;-77
2023/01/11 07:12:02;;;;;;;18.80;2.67;;;9.90;99.90;;;;;;5071930;28;20044;-77
2023/01/11 07:14:28;;;;;;;12.52;3.05;;;9.90;99.90;;;;;;5071968;28;20052;-77
2023/01/11 07:16:53;;;;;;;15.75;2.92;;;9.90;99.90;;;;;;5072417;28;20052;-77
2023/01/11 07:19:19;;;;;;;24.33;2.95;;;9.90;99.90;;;;;;5072785;28;20113;-74
2023/01/11 07:21:45;;;;;;;12.18;2.95;;;9.80;99.90;;;;;;5072543;28;20145;-77
2023/01/11 07:24:10;;;;;;;16.48;3.33;;;9.80;99.90;;;;;;5072320;28;20048;-66
2023/01/11 07:26:40;;;;;;;16.60;3.35;;;9.80;99.90;;;;;;5072298;28;20044;-66
2023/01/11 07:29:09;;;;;;;18.35;2.72;;;9.90;99.90;;;;;;5072319;28;20044;-66
2023/01/11 07:31:35;;;;;;;18.80;3.85;;;9.90;99.90;;;;;;5072566;28;20044;-76
2023/01/11 07:34:02;;;;;;;19.63;3.58;;;9.90;99.90;;;;;;5072410;28;20045;-76
2023/01/11 07:36:28;;;;;;;16.67;4.50;;;9.90;99.90;;;;;;5072514;28;20125;-76
2023/01/11 07:38:55;;;;;;;16.75;2.22;;;9.90;99.90;;;;;;5071834;28;20041;-76
2023/01/11 07:44:05;;;;;;;18.10;3.65;;;9.80;99.90;;;;;;5072059;28;19927;-76
2023/01/11 07:46:30;;;;;;;13.40;3.05;;;9.80;99.90;;;;;;5072363;28;20048;-76
2023/01/11 07:48:56;;;;;;;13.90;3.08;;;9.70;99.90;;;;;;5071143;28;20082;-77
2023/01/11 07:51:23;;;;;;;12.57;3.00;;;9.80;99.90;;;;;;5072304;28;20538;-77
2023/01/11 07:53:49;;;;;;;15.63;3.03;;;9.80;99.90;;;;;;5072006;28;20127;-77
2023/01/11 07:56:15;;;;;;;13.32;2.97;;;9.80;99.90;;;;;;5071908;28;20132;-77
2023/01/11 07:58:41;;;;;;;23.55;5.00;;;9.90;99.90;;;;;;5072263;28;20036;-76
2023/01/11 08:01:07;;;;;;;12.85;2.85;;;9.90;99.90;;;;;;5071895;28;20045;-76
2023/01/11 08:03:32;;;;;;;17.63;3.85;;;9.90;99.90;;;;;;5071166;28;20072;-76
2023/01/11 08:05:58;;;;;;;29.02;4.78;;;9.90;99.90;;;;;;5071384;28;20585;-80
2023/01/11 08:08:24;;;;;;;15.02;3.10;;;9.90;99.90;;;;;;5070501;28;20076;-76
2023/01/11 08:14:37;;;;;;;15.30;3.00;;;10.00;99.90;;;;;;5071966;28;20545;-76
2023/01/11 08:16:19;;;;;;;14.38;2.70;;;9.90;99.90;;;;;;5070370;28;20565;-76
2023/01/11 08:18:45;;;;;;;16.05;3.65;;;9.90;99.90;;;;;;5054218;28;20123;-77
2023/01/11 08:21:10;;;;;;;16.70;3.25;;;9.90;99.90;;;;;;5070134;28;20054;-76
2023/01/11 08:23:36;;;;;;;19.92;2.83;;;9.90;99.90;;;;;;5070434;28;20477;-76
2023/01/11 08:26:02;;;;;;;14.93;2.58;;;9.90;99.90;;;;;;5071136;28;20190;-78
2023/01/11 08:28:28;;;;;;;14.70;1.80;;;9.80;99.90;;;;;;5071978;28;20055;-75
2023/01/11 08:30:53;;;;;;;8.60;1.88;;;9.70;99.90;;;;;;5071851;28;20386;-83
2023/01/11 08:33:19;;;;;;;15.70;2.55;;;9.70;99.90;;;;;;5070038;28;20044;-77
2023/01/11 08:35:45;;;;;;;8.88;2.35;;;9.60;99.90;;;;;;5070812;28;20045;-77
2023/01/11 08:38:10;;;;;;;17.13;2.03;;;9.60;99.90;;;;;;5070979;28;20465;-79
2023/01/11 08:40:36;;;;;;;5.82;1.60;;;9.50;99.90;;;;;;5071723;28;20044;-77
2023/01/11 08:43:02;;;;;;;8.98;1.55;;;9.50;99.90;;;;;;5071366;28;20088;-76
2023/01/11 08:45:28;;;;;;;12.10;2.58;;;9.40;99.90;;;;;;5071559;28;20048;-77
2023/01/11 08:47:53;;;;;;;;;;;9.30;99.90;;;;;;5071863;28;20049;-76
2023/01/11 08:50:20;;;;;;;10.52;1.85;;;9.30;99.90;;;;;;5071054;28;19931;-77
2023/01/11 08:52:46;;;;;;;6.45;1.50;;;9.20;99.90;;;;;;5070626;28;20507;-77
2023/01/11 08:55:12;;;;;;;10.30;1.30;;;9.20;99.90;;;;;;5071201;28;20041;-77
2023/01/11 08:57:38;;;;;;;14.10;2.45;;;9.10;99.90;;;;;;5071586;28;20052;-77
2023/01/11 09:00:05;;;;;;;15.45;2.40;;;9.10;99.90;;;;;;5071086;28;20045;-78
2023/01/11 09:02:31;;;;;;;4.80;1.75;;;9.00;99.90;;;;;;5069728;28;20086;-78
2023/01/11 09:04:57;;;;;;;10.80;1.60;;;9.00;99.90;;;;;;5070440;28;20053;-83
2023/01/11 09:07:23;;;;;;;17.83;2.65;;;9.00;99.90;;;;;;5070960;28;20550;-81
2023/01/11 09:09:49;;;;;;;6.43;2.33;;;8.90;99.90;;;;;;5071073;28;20050;-77
2023/01/11 09:12:15;;;;;;;11.15;1.50;;;8.90;99.90;;;;;;5070082;28;20095;-76
2023/01/11 09:14:42;;;;;;;10.38;1.80;;;8.90;99.90;;;;;;5071539;28;20450;-77
2023/01/11 09:17:08;;;;;;;13.50;2.83;;;8.90;99.90;;;;;;5070464;28;20620;-77
2023/01/11 09:19:35;;;;;;;7.40;1.73;;;8.90;99.90;;;;;;5071170;28;20166;-77
2023/01/11 09:22:02;;;;;;;10.18;2.08;;;8.90;99.90;;;;;;5070626;28;20045;-79
2023/01/11 09:24:28;;;;;;;13.25;2.85;;;9.00;99.90;;;;;;5070905;28;20048;-77
2023/01/11 09:26:57;;;;;;;12.98;2.28;;;9.00;99.90;;;;;;5071242;28;20044;-77
2023/01/11 09:29:23;;;;;;;12.20;2.55;;;9.00;99.90;;;;;;5070847;28;20094;-78
2023/01/11 09:31:49;;;;;;;22.60;2.53;;;9.10;99.90;;;;;;5071165;28;20057;-78
2023/01/11 09:34:14;;;;;;;21.10;2.70;;;9.20;99.90;;;;;;5072333;28;20127;-77
2023/01/11 09:36:40;;;;;;;10.60;3.13;;;9.10;99.90;;;;;;5074534;28;20139;-77
2023/01/11 09:39:11;;;;;;;19.25;3.72;;;9.20;99.90;;;;;;5074160;28;20041;-78
2023/01/11 09:42:06;;;;;;;15.85;2.90;;;9.20;99.90;;;;;;5074918;28;20068;-78
2023/01/11 09:44:35;;;;;;;16.92;1.92;;;9.10;99.90;;;;;;5046815;28;20458;-77
2023/01/11 09:47:35;;;;;;;15.65;2.50;;;9.10;99.90;;;;;;5074231;28;20500;-84
2023/01/11 09:50:06;;;;;;;6.65;2.20;;;9.10;99.90;;;;;;5049874;28;20059;-83
2023/01/11 09:52:39;;;;;;;19.55;2.83;;;9.10;99.90;;;;;;5073511;28;20055;-80
2023/01/11 09:55:14;;;;;;;13.65;2.95;;;9.00;99.90;;;;;;5073496;28;20169;-80
2023/01/11 09:57:47;;;;;;;12.75;2.80;;;9.00;99.90;;;;;;5072681;28;20052;-79
2023/01/11 10:01:07;;;;;;;12.05;2.53;;;9.00;99.90;;;;;;5072060;28;20083;-77
2023/01/11 10:04:14;;;;;;;11.23;2.03;;;9.00;99.90;;;;;;5034560;28;20092;-77
2023/01/11 10:07:14;;;;;;;10.13;1.98;;;9.00;99.90;;;;;;5072871;28;20056;-80
2023/01/11 10:09:42;;;;;;;13.05;1.88;;;9.00;99.90;;;;;;5073117;28;20590;-78
2023/01/11 10:12:43;;;;;;;17.08;3.30;;;8.90;99.90;;;;;;5073012;28;20059;-78
2023/01/11 10:15:27;;;;;;;7.88;1.92;;;8.90;99.90;;;;;;5073072;28;20074;-77
2023/01/11 10:18:13;;;;;;;12.63;2.88;;;8.80;99.90;;;;;;5073130;28;20064;-78
2023/01/11 10:20:51;;;;;;;13.10;2.38;;;8.80;99.90;;;;;;5072791;28;20517;-77
2023/01/11 10:23:48;;;;;;;12.43;2.63;;;8.80;99.90;;;;;;5071738;28;20170;-76
2023/01/11 10:26:34;;;;;;;14.43;2.63;;;8.80;99.90;;;;;;5055809;28;20060;-79
2023/01/11 10:29:20;;;;;;;17.50;2.93;;;8.80;99.90;;;;;;5073941;28;20091;-82
2023/01/11 10:37:43;;;;;;;10.80;2.38;;;8.80;99.90;;;;;;5071704;28;20052;-85
2023/01/11 10:40:34;;;;;;;10.90;2.50;;;8.80;99.90;;;;;;5071706;28;20056;-86
2023/01/11 10:43:23;;;;;;;9.98;2.00;;;8.90;99.90;;;;;;5071962;28;20076;-81
2023/01/11 10:45:53;;;;;;;19.20;3.22;;;9.20;99.90;;;;;;5072665;28;20076;-82
2023/01/11 10:48:24;;;;;;;14.75;2.70;;;9.40;99.90;;;;;;5071469;28;20044;-81
2023/01/11 10:51:08;;;;;;;15.77;3.75;;;9.40;99.90;;;;;;5071595;28;20063;-83
2023/01/11 10:53:48;;;;;;;15.30;2.85;;;9.60;99.90;;;;;;5070909;28;20044;-82
2023/01/11 10:56:48;;;;;;;17.00;2.95;;;9.70;99.90;;;;;;5071313;28;20044;-82
2023/01/11 10:59:25;;;;;;;11.63;2.10;;;9.70;99.90;;;;;;5071246;28;20123;-81
2023/01/11 11:02:13;;;;;;;17.40;2.80;;;9.70;99.90;;;;;;5071321;28;20049;-80
2023/01/11 11:04:59;;;;;;;11.38;2.67;;;9.70;99.90;;;;;;5071592;28;20371;-84
2023/01/11 11:07:31;;;;;;;16.90;2.92;;;9.60;99.90;;;;;;5070399;28;20044;-81
2023/01/11 11:10:10;;;;;;;13.70;3.22;;;9.60;99.90;;;;;;5071190;28;20091;-81
2023/01/11 11:12:40;;;;;;;14.10;2.60;;;9.60;99.90;;;;;;5071430;28;20056;-84
2023/01/11 11:15:16;;;;;;;16.40;3.20;;;9.60;99.90;;;;;;5070824;28;20055;-81
2023/01/11 11:17:48;;;;;;;12.40;2.90;;;9.60;99.90;;;;;;5070305;28;20049;-86
2023/01/11 11:20:17;;;;;;;14.30;2.60;;;9.70;99.90;;;;;;5070417;28;20053;-81
2023/01/11 11:22:44;;;;;;;9.95;2.40;;;9.80;99.90;;;;;;5070186;28;20056;-83
2023/01/11 11:25:21;;;;;;;18.65;3.05;;;9.80;99.90;;;;;;5072000;28;20048;-80
2023/01/11 11:27:50;;;;;;;11.80;3.10;;;10.00;99.90;;;;;;5070865;28;20071;-82
2023/01/11 11:30:36;;;;;;;18.55;2.90;;;10.20;99.90;;;;;;5071014;28;20379;-82
2023/01/11 11:33:19;;;;;;;15.70;2.78;;;10.30;99.90;;;;;;5070867;28;20062;-82
2023/01/11 11:35:55;;;;;;;12.68;3.35;;;10.50;99.90;;;;;;5070684;28;20048;-82
2023/01/11 11:38:30;;;;;;;11.15;2.85;;;10.60;99.90;;;;;;5069937;28;20056;-80
2023/01/11 11:41:07;;;;;;;16.30;3.80;;;11.00;99.90;;;;;;5071041;28;20329;-84
2023/01/11 11:43:36;;;;;;;10.55;2.60;;;11.40;99.90;;;;;;5071162;28;20128;-83
2023/01/11 11:46:23;;;;;;;15.93;3.08;;;11.50;99.90;;;;;;5071111;28;20045;-82
2023/01/11 11:49:16;;;;;;;10.73;2.00;;;11.50;99.90;;;;;;5070103;28;20147;-83
2023/01/11 11:51:45;;;;;;;19.15;2.47;;;11.30;99.90;;;;;;5071028;28;20048;-84
2023/01/11 11:54:42;;;;;;;9.13;2.38;;;11.90;99.90;;;;;;5053639;28;20071;-83
2023/01/11 11:57:28;;;;;;;22.70;2.72;;;12.20;99.90;;;;;;5042282;28;20102;-84
2023/01/11 12:00:24;;;;;;;12.47;2.07;;;12.20;99.90;;;;;;5070417;28;20045;-83
2023/01/11 12:02:58;;;;;;;8.82;2.50;;;11.70;99.90;;;;;;5070637;28;20063;-83
2023/01/11 12:05:24;;;;;;;15.65;3.05;;;12.20;99.90;;;;;;5070431;28;20052;-84
2023/01/11 12:07:50;;;;;;;14.05;2.42;;;12.60;99.90;;;;;;5069918;28;20047;-82
2023/01/11 12:10:19;;;;;;;10.18;2.53;;;12.30;99.90;;;;;;5070464;28;20102;-82
2023/01/11 12:12:51;;;;;;;10.68;2.15;;;12.50;99.90;;;;;;5071677;28;20040;-85
2023/01/11 12:15:21;;;;;;;13.93;2.70;;;12.80;99.90;;;;;;5071492;28;20110;-85
2023/01/11 12:17:47;;;;;;;16.85;2.42;;;12.50;99.90;;;;;;5069932;28;20057;-85
2023/01/11 12:20:22;;;;;;;;;;;11.90;99.90;;;;;;5037373;28;20048;-85
2023/01/11 12:22:49;;;;;;;10.85;1.98;;;11.10;99.90;;;;;;5069671;28;19921;-84
2023/01/11 12:25:25;;;;;;;11.63;2.33;;;10.80;99.90;;;;;;5053637;28;20048;-87
2023/01/11 12:28:06;;;;;;;9.25;2.72;;;11.00;99.90;;;;;;5070574;28;20048;-86
2023/01/11 12:30:48;;;;;;;10.27;2.20;;;11.10;99.90;;;;;;5070005;28;20448;-85
2023/01/11 12:33:39;;;;;;;14.80;1.73;;;11.20;99.90;;;;;;5070244;28;20044;-84
2023/01/11 12:36:11;;;;;;;13.73;2.90;;;11.70;99.90;;;;;;5070360;28;20048;-85
2023/01/11 12:38:43;;;;;;;11.75;1.90;;;12.60;99.90;;;;;;5069450;28;20047;-83
2023/01/11 12:41:44;;;;;;;13.20;3.22;;;12.40;99.90;;;;;;5069713;28;20053;-85
2023/01/11 12:44:16;;;;;;;15.35;2.38;;;12.10;99.90;;;;;;5070404;28;20385;-85
2023/01/11 12:47:04;;;;;;;11.50;2.45;;;11.90;99.90;;;;;;5070304;28;20060;-85
2023/01/11 12:49:38;;;;;;;8.30;1.98;;;11.30;99.90;;;;;;5069757;28;20395;-85
2023/01/11 12:52:39;;;;;;;10.63;1.67;;;10.80;99.90;;;;;;5069975;28;20044;-85
2023/01/11 12:55:31;;;;;;;13.27;2.67;;;11.10;99.90;;;;;;5069919;28;20135;-82
2023/01/11 12:58:27;;;;;;;9.02;2.75;;;12.30;99.90;;;;;;5071109;28;20123;-84
2023/01/11 13:01:02;;;;;;;10.55;1.90;;;12.70;99.90;;;;;;5059380;28;20497;-86
2023/01/11 13:03:46;;;;;;;11.57;2.72;;;12.70;99.90;;;;;;5069144;28;20424;-86
2023/01/11 13:06:24;;;;;;;16.83;2.50;;;12.30;99.90;;;;;;5053189;28;20045;-86
2023/01/11 13:08:55;;;;;;;17.48;2.20;;;11.70;99.90;;;;;;5072751;28;20114;-86
2023/01/11 13:11:36;;;;;;;12.77;2.17;;;11.20;99.90;;;;;;5057246;28;20056;-86
2023/01/11 13:14:37;;;;;;;12.07;2.05;;;11.00;99.90;;;;;;5074371;28;20048;-86
2023/01/11 13:17:21;;;;;;;16.85;2.60;;;10.70;99.90;;;;;;5073735;28;20444;-85
2023/01/11 13:20:22;;;;;;;13.32;2.50;;;10.50;99.90;;;;;;5073961;28;20107;-86
2023/01/11 13:22:56;;;;;;;11.32;1.98;;;10.30;99.90;;;;;;5073493;28;20482;-86
2023/01/11 13:25:28;;;;;;;14.93;2.08;;;10.50;99.90;;;;;;5073501;28;20053;-86
2023/01/11 13:27:56;;;;;;;11.27;2.08;;;11.10;99.90;;;;;;5073936;28;20080;-86
2023/01/11 13:30:25;;;;;;;12.20;2.95;;;12.20;99.90;;;;;;5073293;28;20052;-87
2023/01/11 13:32:56;;;;;;;14.15;2.42;;;13.40;99.90;;;;;;5073471;28;20485;-84
2023/01/11 13:35:35;;;;;;;6.93;2.35;;;14.40;99.90;;;;;;5073653;28;20051;-84
2023/01/11 13:38:26;;;;;;;7.20;2.17;;;15.10;99.90;;;;;;5073293;28;20052;-83
2023/01/11 13:40:55;;;;;;;15.57;2.35;;;15.40;99.90;;;;;;5074383;28;20098;-83